createdAt,value
2017-09-04T00:00:36.449Z,1008.43
2017-09-04T00:01:36.430Z,1008.39
2017-09-04T00:02:36.410Z,1008.36
2017-09-04T00:03:36.401Z,1008.39
2017-09-04T00:04:36.381Z,1008.37
2017-09-04T00:05:36.360Z,1008.31
2017-09-04T00:06:36.342Z,1008.33
2017-09-04T00:07:36.331Z,1008.32
2017-09-04T00:08:36.309Z,1008.36
2017-09-04T00:09:36.297Z,1008.32
2017-09-04T00:10:36.286Z,1008.33
2017-09-04T00:11:36.256Z,1008.34
2017-09-04T00:12:36.239Z,1008.35
2017-09-04T00:13:36.223Z,1008.35
2017-09-04T00:14:36.206Z,1008.34
2017-09-04T00:15:36.193Z,1008.31
2017-09-04T00:16:36.180Z,1008.34
2017-09-04T00:17:36.161Z,1008.33
2017-09-04T00:18:36.140Z,1008.34
2017-09-04T00:19:36.123Z,1008.35
2017-09-04T00:20:36.106Z,1008.31
2017-09-04T00:21:36.088Z,1008.29
2017-09-04T00:22:36.071Z,1008.29
2017-09-04T00:23:36.060Z,1008.29
2017-09-04T00:24:36.036Z,1008.31
2017-09-04T00:25:36.029Z,1008.27
2017-09-04T00:26:36.006Z,1008.26
2017-09-04T00:27:35.989Z,1008.26
2017-09-04T00:28:35.970Z,1008.27
2017-09-04T00:29:35.956Z,1008.25
2017-09-04T00:30:35.941Z,1008.27
2017-09-04T00:31:35.918Z,1008.28
2017-09-04T00:32:35.904Z,1008.27
2017-09-04T00:33:35.886Z,1008.27
2017-09-04T00:34:35.870Z,1008.3
2017-09-04T00:35:35.851Z,1008.28
2017-09-04T00:36:35.833Z,1008.28
2017-09-04T00:37:35.816Z,1008.27
2017-09-04T00:38:35.800Z,1008.27
2017-09-04T00:39:35.782Z,1008.32
2017-09-04T00:40:35.774Z,1008.31
2017-09-04T00:41:35.750Z,1008.32
2017-09-04T00:42:35.729Z,1008.28
2017-09-04T00:43:35.710Z,1008.32
2017-09-04T00:44:35.698Z,1008.3
2017-09-04T00:45:35.682Z,1008.3
2017-09-04T00:46:35.661Z,1008.3
2017-09-04T00:47:35.643Z,1008.3
2017-09-04T00:48:35.626Z,1008.28
2017-09-04T00:49:35.612Z,1008.3
2017-09-04T00:50:35.599Z,1008.26
2017-09-04T00:51:35.574Z,1008.31
2017-09-04T00:52:35.561Z,1008.27
2017-09-04T00:53:35.540Z,1008.27
2017-09-04T00:54:35.524Z,1008.32
2017-09-04T00:55:35.507Z,1008.28
2017-09-04T00:56:35.486Z,1008.27
2017-09-04T00:57:35.498Z,1008.32
2017-09-04T00:58:35.451Z,1008.27
2017-09-04T00:59:35.668Z,1008.31
2017-09-04T01:00:35.419Z,1008.32
2017-09-04T01:01:35.400Z,1008.27
2017-09-04T01:02:35.390Z,1008.3
2017-09-04T01:03:35.367Z,1008.33
2017-09-04T01:04:35.351Z,1008.26
2017-09-04T01:05:35.329Z,1008.28
2017-09-04T01:06:35.311Z,1008.24
2017-09-04T01:07:35.295Z,1008.25
2017-09-04T01:08:35.280Z,1008.21
2017-09-04T01:09:35.259Z,1008.23
2017-09-04T01:10:35.263Z,1008.22
2017-09-04T01:11:35.225Z,1008.18
2017-09-04T01:12:35.210Z,1008.22
2017-09-04T01:13:35.190Z,1008.25
2017-09-04T01:14:35.179Z,1008.21
2017-09-04T01:15:35.160Z,1008.23
2017-09-04T01:16:35.142Z,1008.18
2017-09-04T01:17:35.120Z,1008.17
2017-09-04T01:18:35.111Z,1008.19
2017-09-04T01:19:35.087Z,1008.15
2017-09-04T01:20:35.071Z,1008.16
2017-09-04T01:21:35.053Z,1008.14
2017-09-04T01:22:35.039Z,1008.18
2017-09-04T01:23:35.024Z,1008.14
2017-09-04T01:24:35.000Z,1008.13
2017-09-04T01:25:34.982Z,1008.16
2017-09-04T01:26:34.970Z,1008.14
2017-09-04T01:27:34.951Z,1008.17
2017-09-04T01:28:34.927Z,1008.16
2017-09-04T01:29:34.914Z,1008.13
2017-09-04T01:30:34.897Z,1008.15
2017-09-04T01:31:34.880Z,1008.13
2017-09-04T01:32:34.861Z,1008.12
2017-09-04T01:33:34.841Z,1008.14
2017-09-04T01:34:34.833Z,1008.19
2017-09-04T01:35:34.809Z,1008.17
2017-09-04T01:36:34.790Z,1008.2
2017-09-04T01:37:34.773Z,1008.21
2017-09-04T01:38:34.757Z,1008.23
2017-09-04T01:39:34.739Z,1008.23
2017-09-04T01:40:34.721Z,1008.22
2017-09-04T01:41:34.700Z,1008.23
2017-09-04T01:42:34.683Z,1008.22
2017-09-04T01:43:34.668Z,1008.2
2017-09-04T01:44:34.648Z,1008.2
2017-09-04T01:45:34.630Z,1008.21
2017-09-04T01:46:34.615Z,1008.19
2017-09-04T01:47:34.601Z,1008.23
2017-09-04T01:48:34.580Z,1008.18
2017-09-04T01:49:34.559Z,1008.18
2017-09-04T01:50:34.556Z,1008.2
2017-09-04T01:51:34.555Z,1008.2
2017-09-04T01:52:34.506Z,1008.18
2017-09-04T01:53:34.503Z,1008.19
2017-09-04T01:54:34.482Z,1008.2
2017-09-04T01:55:34.457Z,1008.16
2017-09-04T01:56:34.440Z,1008.18
2017-09-04T01:57:34.422Z,1008.18
2017-09-04T01:58:34.400Z,1008.13
2017-09-04T01:59:34.390Z,1008.15
2017-09-04T02:00:34.370Z,1008.14
2017-09-04T02:01:34.353Z,1008.15
2017-09-04T02:02:34.330Z,1008.15
2017-09-04T02:03:34.322Z,1008.15
2017-09-04T02:04:34.298Z,1008.14
2017-09-04T02:05:34.280Z,1008.15
2017-09-04T02:06:34.262Z,1008.13
2017-09-04T02:07:34.242Z,1008.12
2017-09-04T02:08:34.227Z,1008.09
2017-09-04T02:09:34.253Z,1008.1
2017-09-04T02:10:34.193Z,1008.07
2017-09-04T02:11:34.170Z,1008.1
2017-09-04T02:12:34.150Z,1008.12
2017-09-04T02:13:34.140Z,1008.07
2017-09-04T02:14:34.113Z,1008.06
2017-09-04T02:15:34.100Z,1008.12
2017-09-04T02:16:34.078Z,1008.12
2017-09-04T02:17:34.062Z,1008.1
2017-09-04T02:18:34.044Z,1008.09
2017-09-04T02:19:34.039Z,1008.11
2017-09-04T02:20:34.008Z,1008.1
2017-09-04T02:21:33.991Z,1008.09
2017-09-04T02:22:33.971Z,1008.09
2017-09-04T02:23:33.952Z,1008.08
2017-09-04T02:24:33.940Z,1008.08
2017-09-04T02:25:33.922Z,1008.07
2017-09-04T02:26:33.901Z,1008.01
2017-09-04T02:27:33.882Z,1008
2017-09-04T02:28:33.867Z,1008.01
2017-09-04T02:29:33.852Z,1008
2017-09-04T02:30:33.825Z,1008.01
2017-09-04T02:31:33.809Z,1007.98
2017-09-04T02:32:33.796Z,1007.97
2017-09-04T02:33:33.781Z,1008.01
2017-09-04T02:34:33.757Z,1007.97
2017-09-04T02:35:33.741Z,1007.98
2017-09-04T02:36:33.721Z,1008.02
2017-09-04T02:37:33.702Z,1007.98
2017-09-04T02:38:33.686Z,1008.02
2017-09-04T02:39:33.669Z,1008.04
2017-09-04T02:40:33.648Z,1007.97
2017-09-04T02:41:33.631Z,1008
2017-09-04T02:42:33.620Z,1007.95
2017-09-04T02:43:33.594Z,1007.94
2017-09-04T02:44:33.574Z,1007.96
2017-09-04T02:45:33.560Z,1008
2017-09-04T02:46:33.540Z,1008.01
2017-09-04T02:47:33.523Z,1007.98
2017-09-04T02:48:33.506Z,1007.96
2017-09-04T02:49:33.485Z,1007.97
2017-09-04T02:50:33.470Z,1007.95
2017-09-04T02:51:33.450Z,1007.91
2017-09-04T02:52:33.442Z,1007.91
2017-09-04T02:53:33.418Z,1007.91
2017-09-04T02:54:33.400Z,1007.91
2017-09-04T02:55:33.381Z,1007.9
2017-09-04T02:56:33.360Z,1007.89
2017-09-04T02:57:33.346Z,1007.85
2017-09-04T02:58:33.323Z,1007.91
2017-09-04T02:59:33.309Z,1007.88
2017-09-04T03:00:33.287Z,1007.86
2017-09-04T03:01:33.270Z,1007.86
2017-09-04T03:02:33.250Z,1007.89
2017-09-04T03:03:33.243Z,1007.92
2017-09-04T03:04:33.217Z,1007.91
2017-09-04T03:05:33.200Z,1007.89
2017-09-04T03:06:33.181Z,1007.91
2017-09-04T03:07:33.161Z,1007.9
2017-09-04T03:08:33.141Z,1007.88
2017-09-04T03:09:33.130Z,1007.9
2017-09-04T03:10:33.110Z,1007.89
2017-09-04T03:11:33.091Z,1007.86
2017-09-04T03:12:33.072Z,1007.84
2017-09-04T03:13:33.060Z,1007.86
2017-09-04T03:14:33.040Z,1007.86
2017-09-04T03:15:33.019Z,1007.85
2017-09-04T03:16:33.000Z,1007.88
2017-09-04T03:17:32.980Z,1007.89
2017-09-04T03:18:32.972Z,1007.91
2017-09-04T03:19:32.948Z,1007.91
2017-09-04T03:20:32.930Z,1007.9
2017-09-04T03:21:32.910Z,1007.91
2017-09-04T03:22:32.889Z,1007.92
2017-09-04T03:23:32.880Z,1007.94
2017-09-04T03:24:32.855Z,1007.93
2017-09-04T03:25:32.841Z,1007.97
2017-09-04T03:26:32.821Z,1007.94
2017-09-04T03:27:32.802Z,1007.92
2017-09-04T03:28:32.788Z,1007.96
2017-09-04T03:29:32.770Z,1007.98
2017-09-04T03:30:32.750Z,1008
2017-09-04T03:31:32.726Z,1008
2017-09-04T03:32:32.710Z,1008.03
2017-09-04T03:33:32.693Z,1008.01
2017-09-04T03:34:32.927Z,1008.03
2017-09-04T03:35:32.660Z,1008.04
2017-09-04T03:36:32.643Z,1008
2017-09-04T03:37:32.617Z,1008.04
2017-09-04T03:38:32.600Z,1008.04
2017-09-04T03:39:32.582Z,1008.03
2017-09-04T03:40:32.564Z,1008.01
2017-09-04T03:41:32.547Z,1008.01
2017-09-04T03:42:32.530Z,1008.04
2017-09-04T03:43:32.511Z,1008.02
2017-09-04T03:44:32.753Z,1007.99
2017-09-04T03:45:32.471Z,1008.01
2017-09-04T03:46:32.457Z,1008.01
2017-09-04T03:47:32.453Z,1008.03
2017-09-04T03:48:32.421Z,1008.05
2017-09-04T03:49:32.400Z,1008.1
2017-09-04T03:50:32.424Z,1008.1
2017-09-04T03:51:32.365Z,1008.11
2017-09-04T03:52:32.348Z,1008.08
2017-09-04T03:53:32.332Z,1008.09
2017-09-04T03:54:32.310Z,1008.09
2017-09-04T03:55:32.294Z,1008.05
2017-09-04T03:56:32.272Z,1008.12
2017-09-04T03:57:32.253Z,1008.09
2017-09-04T03:58:32.237Z,1008.1
2017-09-04T03:59:32.221Z,1008.08
2017-09-04T04:00:32.198Z,1008.08
2017-09-04T04:01:32.183Z,1008.07
2017-09-04T04:02:32.167Z,1008.08
2017-09-04T04:03:32.149Z,1008.1
2017-09-04T04:04:32.127Z,1008.1
2017-09-04T04:05:32.111Z,1008.09
2017-09-04T04:06:32.094Z,1008.06
2017-09-04T04:07:32.076Z,1008.08
2017-09-04T04:08:32.051Z,1008.11
2017-09-04T04:09:32.037Z,1008.09
2017-09-04T04:10:32.023Z,1008.08
2017-09-04T04:11:31.997Z,1008.09
2017-09-04T04:12:31.981Z,1008.14
2017-09-04T04:13:31.970Z,1008.12
2017-09-04T04:14:31.949Z,1008.12
2017-09-04T04:15:31.930Z,1008.08
2017-09-04T04:16:31.909Z,1008.06
2017-09-04T04:17:31.892Z,1008.08
2017-09-04T04:18:31.871Z,1008.08
2017-09-04T04:19:31.850Z,1008.07
2017-09-04T04:20:31.836Z,1008.04
2017-09-04T04:21:31.820Z,1008.06
2017-09-04T04:22:31.800Z,1008.04
2017-09-04T04:23:31.779Z,1008
2017-09-04T04:24:31.761Z,1007.99
2017-09-04T04:25:31.743Z,1008
2017-09-04T04:26:31.757Z,1008.03
2017-09-04T04:27:31.712Z,1008.04
2017-09-04T04:28:31.692Z,1008.06
2017-09-04T04:29:31.670Z,1008.08
2017-09-04T04:30:31.742Z,1008.09
2017-09-04T04:31:31.632Z,1008.07
2017-09-04T04:32:31.620Z,1008.07
2017-09-04T04:33:31.592Z,1008.1
2017-09-04T04:34:31.630Z,1008.06
2017-09-04T04:35:31.561Z,1008.04
2017-09-04T04:36:31.543Z,1008.01
2017-09-04T04:37:31.519Z,1008.02
2017-09-04T04:38:31.511Z,1008.01
2017-09-04T04:39:31.481Z,1008.03
2017-09-04T04:40:31.467Z,1007.99
2017-09-04T04:41:31.442Z,1008
2017-09-04T04:42:31.430Z,1007.99
2017-09-04T04:43:31.410Z,1007.97
2017-09-04T04:44:31.489Z,1007.98
2017-09-04T04:45:31.369Z,1007.99
2017-09-04T04:46:31.358Z,1007.99
2017-09-04T04:47:31.340Z,1008.04
2017-09-04T04:48:31.318Z,1008.05
2017-09-04T04:49:31.296Z,1008.09
2017-09-04T04:50:31.346Z,1008.08
2017-09-04T04:51:31.261Z,1008.12
2017-09-04T04:52:31.239Z,1008.09
2017-09-04T04:53:31.221Z,1008.12
2017-09-04T04:54:31.207Z,1008.09
2017-09-04T04:55:31.182Z,1008.12
2017-09-04T04:56:31.171Z,1008.1
2017-09-04T04:57:31.144Z,1008.06
2017-09-04T04:58:31.124Z,1008.12
2017-09-04T04:59:31.105Z,1008.11
2017-09-04T05:00:31.150Z,1008.12
2017-09-04T05:01:31.068Z,1008.15
2017-09-04T05:02:31.053Z,1008.18
2017-09-04T05:03:31.028Z,1008.17
2017-09-04T05:04:31.065Z,1008.21
2017-09-04T05:05:30.994Z,1008.24
2017-09-04T05:06:30.981Z,1008.24
2017-09-04T05:07:30.955Z,1008.23
2017-09-04T05:08:30.942Z,1008.2
2017-09-04T05:09:30.919Z,1008.22
2017-09-04T05:10:30.932Z,1008.25
2017-09-04T05:11:30.876Z,1008.24
2017-09-04T05:12:30.861Z,1008.23
2017-09-04T05:13:30.836Z,1008.2
2017-09-04T05:14:30.820Z,1008.24
2017-09-04T05:15:30.798Z,1008.24
2017-09-04T05:16:30.780Z,1008.23
2017-09-04T05:17:30.766Z,1008.23
2017-09-04T05:18:30.742Z,1008.22
2017-09-04T05:19:30.733Z,1008.22
2017-09-04T05:20:30.703Z,1008.25
2017-09-04T05:21:30.687Z,1008.2
2017-09-04T05:22:30.670Z,1008.17
2017-09-04T05:23:30.654Z,1008.16
2017-09-04T05:24:30.627Z,1008.18
2017-09-04T05:25:30.617Z,1008.19
2017-09-04T05:26:30.590Z,1008.17
2017-09-04T05:27:30.577Z,1008.16
2017-09-04T05:28:30.553Z,1008.19
2017-09-04T05:29:30.537Z,1008.2
2017-09-04T05:30:30.515Z,1008.18
2017-09-04T05:31:30.497Z,1008.18
2017-09-04T05:32:30.479Z,1008.25
2017-09-04T05:33:30.485Z,1008.18
2017-09-04T05:34:30.440Z,1008.19
2017-09-04T05:35:30.419Z,1008.19
2017-09-04T05:36:30.406Z,1008.18
2017-09-04T05:37:30.388Z,1008.18
2017-09-04T05:38:30.365Z,1008.16
2017-09-04T05:39:30.349Z,1008.18
2017-09-04T05:40:30.327Z,1008.18
2017-09-04T05:41:30.314Z,1008.19
2017-09-04T05:42:30.289Z,1008.25
2017-09-04T05:43:30.271Z,1008.24
2017-09-04T05:44:30.248Z,1008.25
2017-09-04T05:45:30.230Z,1008.27
2017-09-04T05:46:30.215Z,1008.29
2017-09-04T05:47:30.198Z,1008.28
2017-09-04T05:48:30.179Z,1008.29
2017-09-04T05:49:30.168Z,1008.3
2017-09-04T05:50:30.136Z,1008.3
2017-09-04T05:51:30.119Z,1008.28
2017-09-04T05:52:30.099Z,1008.3
2017-09-04T05:53:30.079Z,1008.27
2017-09-04T05:54:30.060Z,1008.3
2017-09-04T05:55:30.042Z,1008.33
2017-09-04T05:56:30.029Z,1008.32
2017-09-04T05:57:30.008Z,1008.29
2017-09-04T05:58:29.991Z,1008.33
2017-09-04T05:59:30.218Z,1008.31
2017-09-04T06:00:29.947Z,1008.32
2017-09-04T06:01:29.929Z,1008.32
2017-09-04T06:02:29.961Z,1008.33
2017-09-04T06:03:29.893Z,1008.36
2017-09-04T06:04:29.927Z,1008.35
2017-09-04T06:05:29.857Z,1008.36
2017-09-04T06:06:29.842Z,1008.33
2017-09-04T06:07:29.819Z,1008.32
2017-09-04T06:08:29.799Z,1008.35
2017-09-04T06:09:29.779Z,1008.37
2017-09-04T06:10:29.818Z,1008.4
2017-09-04T06:11:29.742Z,1008.39
2017-09-04T06:12:29.727Z,1008.43
2017-09-04T06:13:29.709Z,1008.42
2017-09-04T06:14:29.688Z,1008.46
2017-09-04T06:15:29.666Z,1008.42
2017-09-04T06:16:29.748Z,1008.45
2017-09-04T06:17:29.630Z,1008.41
2017-09-04T06:18:29.614Z,1008.39
2017-09-04T06:19:29.596Z,1008.43
2017-09-04T06:20:29.585Z,1008.45
2017-09-04T06:21:29.558Z,1008.43
2017-09-04T06:22:29.538Z,1008.47
2017-09-04T06:23:29.519Z,1008.43
2017-09-04T06:24:29.602Z,1008.45
2017-09-04T06:25:29.518Z,1008.44
2017-09-04T06:26:29.560Z,1008.49
2017-09-04T06:27:29.443Z,1008.46
2017-09-04T06:28:29.539Z,1008.45
2017-09-04T06:29:29.412Z,1008.46
2017-09-04T06:30:29.418Z,1008.45
2017-09-04T06:31:29.373Z,1008.42
2017-09-04T06:32:29.360Z,1008.47
2017-09-04T06:33:29.338Z,1008.48
2017-09-04T06:34:29.371Z,1008.49
2017-09-04T06:35:29.298Z,1008.5
2017-09-04T06:36:29.287Z,1008.52
2017-09-04T06:37:29.269Z,1008.52
2017-09-04T06:38:29.272Z,1008.52
2017-09-04T06:39:29.241Z,1008.59
2017-09-04T06:40:29.210Z,1008.59
2017-09-04T06:41:29.188Z,1008.53
2017-09-04T06:42:29.179Z,1008.57
2017-09-04T06:43:29.154Z,1008.6
2017-09-04T06:44:29.199Z,1008.62
2017-09-04T06:45:29.119Z,1008.6
2017-09-04T06:46:29.102Z,1008.6
2017-09-04T06:47:29.089Z,1008.65
2017-09-04T06:48:29.065Z,1008.63
2017-09-04T06:49:29.052Z,1008.65
2017-09-04T06:50:29.033Z,1008.68
2017-09-04T06:51:29.019Z,1008.69
2017-09-04T06:52:29.000Z,1008.68
2017-09-04T06:53:28.983Z,1008.72
2017-09-04T06:54:28.966Z,1008.77
2017-09-04T06:55:28.951Z,1008.8
2017-09-04T06:56:28.957Z,1008.83
2017-09-04T06:57:28.910Z,1008.82
2017-09-04T06:58:28.894Z,1008.91
2017-09-04T06:59:28.879Z,1008.9
2017-09-04T07:00:28.859Z,1008.85
2017-09-04T07:01:28.846Z,1008.9
2017-09-04T07:02:28.830Z,1008.91
2017-09-04T07:03:28.810Z,1008.92
2017-09-04T07:04:28.802Z,1008.87
2017-09-04T07:05:28.785Z,1008.9
2017-09-04T07:06:28.770Z,1008.94
2017-09-04T07:07:28.753Z,1008.95
2017-09-04T07:08:28.739Z,1008.97
2017-09-04T07:09:28.733Z,1008.97
2017-09-04T07:10:28.715Z,1008.99
2017-09-04T07:11:28.701Z,1008.92
2017-09-04T07:12:28.679Z,1008.92
2017-09-04T07:13:28.671Z,1008.91
2017-09-04T07:14:28.650Z,1008.97
2017-09-04T07:15:28.639Z,1009
2017-09-04T07:16:28.624Z,1009.02
2017-09-04T07:17:28.614Z,1009.07
2017-09-04T07:18:28.596Z,1009.1
2017-09-04T07:19:28.584Z,1009.13
2017-09-04T07:20:28.574Z,1009.17
2017-09-04T07:21:28.549Z,1009.18
2017-09-04T07:22:28.541Z,1009.2
2017-09-04T07:23:28.530Z,1009.23
2017-09-04T07:24:28.507Z,1009.25
2017-09-04T07:25:28.500Z,1009.26
2017-09-04T07:26:28.490Z,1009.27
2017-09-04T07:27:28.472Z,1009.34
2017-09-04T07:28:28.462Z,1009.39
2017-09-04T07:29:28.450Z,1009.4
2017-09-04T07:30:28.432Z,1009.35
2017-09-04T07:31:28.420Z,1009.33
2017-09-04T07:32:28.408Z,1009.35
2017-09-04T07:33:28.400Z,1009.38
2017-09-04T07:34:28.384Z,1009.34
2017-09-04T07:35:28.375Z,1009.36
2017-09-04T07:36:28.361Z,1009.33
2017-09-04T07:37:28.350Z,1009.38
2017-09-04T07:38:28.342Z,1009.38
2017-09-04T07:39:28.332Z,1009.41
2017-09-04T07:40:28.323Z,1009.42
2017-09-04T07:41:28.313Z,1009.39
2017-09-04T07:42:28.314Z,1009.44
2017-09-04T07:43:28.293Z,1009.41
2017-09-04T07:44:28.291Z,1009.45
2017-09-04T07:45:28.293Z,1009.45
2017-09-04T07:46:28.274Z,1009.48
2017-09-04T07:47:28.262Z,1009.56
2017-09-04T07:48:28.252Z,1009.61
2017-09-04T07:49:28.244Z,1009.6
2017-09-04T07:50:28.238Z,1009.61
2017-09-04T07:51:28.228Z,1009.67
2017-09-04T07:52:28.222Z,1009.67
2017-09-04T07:53:28.219Z,1009.64
2017-09-04T07:54:28.208Z,1009.67
2017-09-04T07:55:28.202Z,1009.61
2017-09-04T07:56:28.194Z,1009.62
2017-09-04T07:57:28.186Z,1009.66
2017-09-04T07:58:28.181Z,1009.64
2017-09-04T07:59:28.174Z,1009.64
2017-09-04T08:00:28.165Z,1009.65
2017-09-04T08:01:28.162Z,1009.69
2017-09-04T08:02:28.152Z,1009.64
2017-09-04T08:03:28.153Z,1009.64
2017-09-04T08:04:28.142Z,1009.67
2017-09-04T08:05:28.141Z,1009.7
2017-09-04T08:06:28.132Z,1009.67
2017-09-04T08:07:28.125Z,1009.68
2017-09-04T08:08:28.120Z,1009.73
2017-09-04T08:09:28.115Z,1009.73
2017-09-04T08:10:28.113Z,1009.75
2017-09-04T08:11:28.102Z,1009.72
2017-09-04T08:12:28.096Z,1009.71
2017-09-04T08:13:28.095Z,1009.71
2017-09-04T08:14:28.092Z,1009.7
2017-09-04T08:15:28.084Z,1009.73
2017-09-04T08:16:28.075Z,1009.73
2017-09-04T08:17:28.072Z,1009.64
2017-09-04T08:18:28.067Z,1009.65
2017-09-04T08:19:28.062Z,1009.66
2017-09-04T08:20:28.062Z,1009.7
2017-09-04T08:21:28.051Z,1009.67
2017-09-04T08:22:28.051Z,1009.68
2017-09-04T08:23:28.042Z,1009.66
2017-09-04T08:24:28.037Z,1009.69
2017-09-04T08:25:28.032Z,1009.69
2017-09-04T08:26:28.078Z,1009.67
2017-09-04T08:27:28.033Z,1009.68
2017-09-04T08:28:28.022Z,1009.67
2017-09-04T08:29:28.031Z,1009.7
2017-09-04T08:30:28.115Z,1009.72
2017-09-04T08:31:28.005Z,1009.7
2017-09-04T08:32:28.055Z,1009.74
2017-09-04T08:33:28.004Z,1009.75
2017-09-04T08:34:28.002Z,1009.75
2017-09-04T08:35:27.995Z,1009.76
2017-09-04T08:36:28.003Z,1009.74
2017-09-04T08:37:27.987Z,1009.77
2017-09-04T08:38:27.984Z,1009.78
2017-09-04T08:39:27.992Z,1009.77
2017-09-04T08:40:27.973Z,1009.79
2017-09-04T08:41:27.971Z,1009.8
2017-09-04T08:42:27.973Z,1009.79
2017-09-04T08:43:27.968Z,1009.78
2017-09-04T08:44:27.973Z,1009.8
2017-09-04T08:45:27.961Z,1009.79
2017-09-04T08:46:27.955Z,1009.77
2017-09-04T08:47:27.951Z,1009.77
2017-09-04T08:48:27.948Z,1009.81
2017-09-04T08:49:27.956Z,1009.8
2017-09-04T08:50:27.943Z,1009.79
2017-09-04T08:51:27.942Z,1009.8
2017-09-04T08:52:27.939Z,1009.75
2017-09-04T08:53:27.939Z,1009.76
2017-09-04T08:54:27.942Z,1009.77
2017-09-04T08:55:27.942Z,1009.76
2017-09-04T08:56:27.934Z,1009.79
2017-09-04T08:57:27.933Z,1009.76
2017-09-04T08:58:27.929Z,1009.82
2017-09-04T08:59:27.931Z,1009.79
2017-09-04T09:00:27.930Z,1009.82
2017-09-04T09:01:27.965Z,1009.8
2017-09-04T09:02:27.924Z,1009.81
2017-09-04T09:03:27.937Z,1009.78
2017-09-04T09:04:27.921Z,1009.82
2017-09-04T09:05:27.926Z,1009.8
2017-09-04T09:06:27.920Z,1009.83
2017-09-04T09:07:27.920Z,1009.8
2017-09-04T09:08:27.920Z,1009.79
2017-09-04T09:09:27.920Z,1009.77
2017-09-04T09:10:27.929Z,1009.77
2017-09-04T09:11:27.927Z,1009.77
2017-09-04T09:12:27.921Z,1009.75
2017-09-04T09:13:27.921Z,1009.75
2017-09-04T09:14:27.911Z,1009.73
2017-09-04T09:15:27.913Z,1009.73
2017-09-04T09:16:27.913Z,1009.75
2017-09-04T09:17:27.911Z,1009.72
2017-09-04T09:18:27.911Z,1009.73
2017-09-04T09:19:27.911Z,1009.71
2017-09-04T09:20:27.913Z,1009.71
2017-09-04T09:21:27.910Z,1009.71
2017-09-04T09:22:27.914Z,1009.65
2017-09-04T09:23:27.912Z,1009.67
2017-09-04T09:24:27.911Z,1009.71
2017-09-04T09:25:27.911Z,1009.7
2017-09-04T09:26:27.911Z,1009.74
2017-09-04T09:27:27.909Z,1009.75
2017-09-04T09:28:27.937Z,1009.74
2017-09-04T09:29:27.899Z,1009.73
2017-09-04T09:30:27.950Z,1009.73
2017-09-04T09:31:27.899Z,1009.73
2017-09-04T09:32:27.895Z,1009.73
2017-09-04T09:33:27.897Z,1009.78
2017-09-04T09:34:27.896Z,1009.76
2017-09-04T09:35:27.893Z,1009.79
2017-09-04T09:36:27.899Z,1009.79
2017-09-04T09:37:27.897Z,1009.83
2017-09-04T09:38:27.889Z,1009.82
2017-09-04T09:39:27.890Z,1009.82
2017-09-04T09:40:27.901Z,1009.83
2017-09-04T09:41:27.886Z,1009.85
2017-09-04T09:42:27.890Z,1009.9
2017-09-04T09:43:27.888Z,1009.86
2017-09-04T09:44:27.888Z,1009.85
2017-09-04T09:45:27.879Z,1009.84
2017-09-04T09:46:27.880Z,1009.86
2017-09-04T09:47:27.879Z,1009.84
2017-09-04T09:48:27.878Z,1009.83
2017-09-04T09:49:27.875Z,1009.81
2017-09-04T09:50:27.872Z,1009.79
2017-09-04T09:51:27.870Z,1009.82
2017-09-04T09:52:27.866Z,1009.8
2017-09-04T09:53:27.869Z,1009.77
2017-09-04T09:54:27.869Z,1009.79
2017-09-04T09:55:27.869Z,1009.78
2017-09-04T09:56:27.894Z,1009.78
2017-09-04T09:57:27.860Z,1009.76
2017-09-04T09:58:27.857Z,1009.75
2017-09-04T09:59:27.918Z,1009.76
2017-09-04T10:00:27.848Z,1009.72
2017-09-04T10:01:27.847Z,1009.75
2017-09-04T10:02:27.846Z,1009.7
2017-09-04T10:03:27.840Z,1009.72
2017-09-04T10:04:27.837Z,1009.75
2017-09-04T10:05:27.834Z,1009.74
2017-09-04T10:06:27.831Z,1009.68
2017-09-04T10:07:27.864Z,1009.72
2017-09-04T10:08:27.828Z,1009.73
2017-09-04T10:09:27.828Z,1009.72
2017-09-04T10:10:27.813Z,1009.7
2017-09-04T10:11:27.812Z,1009.72
2017-09-04T10:12:27.807Z,1009.69
2017-09-04T10:13:27.807Z,1009.68
2017-09-04T10:14:27.797Z,1009.73
2017-09-04T10:15:27.797Z,1009.7
2017-09-04T10:16:27.797Z,1009.68
2017-09-04T10:17:27.787Z,1009.69
2017-09-04T10:18:27.782Z,1009.73
2017-09-04T10:19:27.777Z,1009.69
2017-09-04T10:20:27.777Z,1009.63
2017-09-04T10:21:27.767Z,1009.68
2017-09-04T10:22:27.765Z,1009.65
2017-09-04T10:23:27.758Z,1009.7
2017-09-04T10:24:27.756Z,1009.68
2017-09-04T10:25:27.757Z,1009.7
2017-09-04T10:26:27.846Z,1009.73
2017-09-04T10:27:27.738Z,1009.75
2017-09-04T10:28:27.835Z,1009.75
2017-09-04T10:29:27.737Z,1009.78
2017-09-04T10:30:27.768Z,1009.75
2017-09-04T10:31:27.716Z,1009.79
2017-09-04T10:32:27.707Z,1009.8
2017-09-04T10:33:27.707Z,1009.78
2017-09-04T10:34:27.700Z,1009.75
2017-09-04T10:35:27.686Z,1009.78
2017-09-04T10:36:27.680Z,1009.71
2017-09-04T10:37:27.678Z,1009.73
2017-09-04T10:38:27.677Z,1009.78
2017-09-04T10:39:27.677Z,1009.74
2017-09-04T10:40:27.658Z,1009.74
2017-09-04T10:41:27.653Z,1009.7
2017-09-04T10:42:27.655Z,1009.71
2017-09-04T10:43:27.641Z,1009.66
2017-09-04T10:44:27.632Z,1009.67
2017-09-04T10:45:27.628Z,1009.66
2017-09-04T10:46:27.620Z,1009.69
2017-09-04T10:47:27.621Z,1009.69
2017-09-04T10:48:27.605Z,1009.7
2017-09-04T10:49:27.599Z,1009.7
2017-09-04T10:50:27.594Z,1009.7
2017-09-04T10:51:27.585Z,1009.66
2017-09-04T10:52:27.580Z,1009.66
2017-09-04T10:53:27.570Z,1009.62
2017-09-04T10:54:27.569Z,1009.61
2017-09-04T10:55:27.593Z,1009.61
2017-09-04T10:56:27.554Z,1009.61
2017-09-04T10:57:27.554Z,1009.62
2017-09-04T10:58:27.565Z,1009.63
2017-09-04T10:59:27.540Z,1009.68
2017-09-04T11:00:27.527Z,1009.66
2017-09-04T11:01:27.529Z,1009.67
2017-09-04T11:02:27.518Z,1009.67
2017-09-04T11:03:27.507Z,1009.72
2017-09-04T11:04:27.498Z,1009.73
2017-09-04T11:05:27.497Z,1009.68
2017-09-04T11:06:27.485Z,1009.76
2017-09-04T11:07:27.478Z,1009.71
2017-09-04T11:08:27.478Z,1009.79
2017-09-04T11:09:27.468Z,1009.77
2017-09-04T11:10:27.470Z,1009.8
2017-09-04T11:11:27.457Z,1009.73
2017-09-04T11:12:27.447Z,1009.74
2017-09-04T11:13:27.436Z,1009.67
2017-09-04T11:14:27.434Z,1009.66
2017-09-04T11:15:27.420Z,1009.75
2017-09-04T11:16:27.415Z,1009.72
2017-09-04T11:17:27.410Z,1009.7
2017-09-04T11:18:27.398Z,1009.68
2017-09-04T11:19:27.396Z,1009.69
2017-09-04T11:20:27.385Z,1009.7
2017-09-04T11:21:27.381Z,1009.66
2017-09-04T11:22:27.379Z,1009.69
2017-09-04T11:23:27.378Z,1009.66
2017-09-04T11:24:27.356Z,1009.69
2017-09-04T11:25:27.350Z,1009.66
2017-09-04T11:26:27.349Z,1009.63
2017-09-04T11:27:27.338Z,1009.63
2017-09-04T11:28:27.331Z,1009.64
2017-09-04T11:29:27.319Z,1009.59
2017-09-04T11:30:27.312Z,1009.62
2017-09-04T11:31:27.311Z,1009.63
2017-09-04T11:32:27.309Z,1009.65
2017-09-04T11:33:27.289Z,1009.56
2017-09-04T11:34:27.280Z,1009.58
2017-09-04T11:35:27.272Z,1009.56
2017-09-04T11:36:27.271Z,1009.51
2017-09-04T11:37:27.262Z,1009.52
2017-09-04T11:38:27.252Z,1009.52
2017-09-04T11:39:27.242Z,1009.53
2017-09-04T11:40:27.230Z,1009.54
2017-09-04T11:41:27.224Z,1009.53
2017-09-04T11:42:27.222Z,1009.49
2017-09-04T11:43:27.210Z,1009.52
2017-09-04T11:44:27.200Z,1009.49
2017-09-04T11:45:27.192Z,1009.51
2017-09-04T11:46:27.192Z,1009.53
2017-09-04T11:47:27.170Z,1009.55
2017-09-04T11:48:27.158Z,1009.55
2017-09-04T11:49:27.149Z,1009.56
2017-09-04T11:50:27.151Z,1009.64
2017-09-04T11:51:27.139Z,1009.64
2017-09-04T11:52:27.131Z,1009.66
2017-09-04T11:53:27.116Z,1009.68
2017-09-04T11:54:27.113Z,1009.69
2017-09-04T11:55:27.105Z,1009.66
2017-09-04T11:56:27.095Z,1009.64
2017-09-04T11:57:27.094Z,1009.64
2017-09-04T11:58:27.077Z,1009.62
2017-09-04T11:59:27.072Z,1009.63
2017-09-04T12:00:27.069Z,1009.62
2017-09-04T12:01:27.053Z,1009.62
2017-09-04T12:02:27.046Z,1009.61
2017-09-04T12:03:27.040Z,1009.63
2017-09-04T12:04:27.031Z,1009.61
2017-09-04T12:05:27.019Z,1009.63
2017-09-04T12:06:27.020Z,1009.65
2017-09-04T12:07:27.008Z,1009.66
2017-09-04T12:08:27.001Z,1009.69
2017-09-04T12:09:26.992Z,1009.72